Terminal Aerodrome Forecast
Issued by NWS

Current Version | Previous Version | Text Only | Print | Product List | Glossary On
Versions: 1 2 3 4 5 6 7 8 9 10 11 12 13 14
000
FTUS45 KREV 300500
TAFMMH
TAF
KMMH 300535Z 3006/0106 VRB05KT P6SM SCT180
     FM302000 30010KT P6SM SCT180
     FM010300 VRB03KT P6SM SKC
      AMD NOT SKED TIL 301400=

USA.gov is the U.S. government's official web portal to all federal, state and local government web resources and services.